Time;durP1;ratioP1;P1;durP2;ratioP2;P2;SDS_P1;SDS_P2;PMS_P1;PMS_P2;Temp;Humidity;BMP_temperature;BMP_pressure;BME280_temperature;BME280_humidity;BME280_pressure;Samples;Min_cycle;Max_cycle;Signal;HPM_P1;HPM_P2
2021/12/20 00:00:34;;;;;;;22.20;8.47;;;;;;;5.33;100.00;102640.06;5215566;28;20034;-73
2021/12/20 00:03:06;;;;;;;22.43;8.33;;;;;;;5.32;100.00;102639.22;5215660;28;20026;-73
2021/12/20 00:05:37;;;;;;;16.43;7.63;;;;;;;5.32;100.00;102635.75;5215535;28;20029;-73
2021/12/20 00:08:09;;;;;;;15.73;6.87;;;;;;;5.29;100.00;102634.78;5215262;28;20423;-73
2021/12/20 00:10:40;;;;;;;18.47;6.63;;;;;;;5.32;100.00;102636.63;5206757;28;20026;-73
2021/12/20 00:13:12;;;;;;;16.97;8.20;;;;;;;5.34;100.00;102636.69;5194736;28;20026;-74
2021/12/20 00:15:44;;;;;;;12.13;7.13;;;;;;;5.32;100.00;102648.69;5194291;28;20386;-74
2021/12/20 00:18:15;;;;;;;18.08;7.18;;;;;;;5.32;100.00;102640.91;5194959;28;20573;-74
2021/12/20 00:20:47;;;;;;;15.00;6.53;;;;;;;5.30;100.00;102635.69;5194789;28;20108;-74
2021/12/20 00:23:18;;;;;;;13.90;7.13;;;;;;;5.30;100.00;102640.84;5194702;28;20037;-73
2021/12/20 00:25:50;;;;;;;14.70;5.73;;;;;;;5.27;100.00;102635.56;5194427;28;20034;-74
2021/12/20 00:28:21;;;;;;;14.90;6.15;;;;;;;5.27;100.00;102641.59;5193957;28;20279;-73
2021/12/20 00:30:53;;;;;;;15.37;5.93;;;;;;;5.27;100.00;102645.91;5177100;28;20125;-72
2021/12/20 00:33:28;;;;;;;17.20;5.73;;;;;;;5.28;100.00;102635.63;5194478;28;20212;-72
2021/12/20 00:36:01;;;;;;;13.57;5.55;;;;;;;5.24;100.00;102631.16;5194425;28;20079;-73
2021/12/20 00:41:23;;;;;;;12.20;5.50;;;;;;;5.24;100.00;102625.09;5194168;28;20490;-73
2021/12/20 00:43:55;;;;;;;18.63;5.23;;;;;;;5.23;100.00;102624.22;5194631;28;20031;-73
2021/12/20 00:46:26;;;;;;;13.77;4.73;;;;;;;5.26;100.00;102628.63;5208983;28;20151;-73
2021/12/20 00:48:58;;;;;;;19.87;6.37;;;;;;;5.23;100.00;102631.09;5193996;28;20053;-73
2021/12/20 00:51:29;;;;;;;17.23;5.43;;;;;;;5.22;100.00;102629.34;5193461;28;20067;-73
2021/12/20 00:54:01;;;;;;;19.97;4.87;;;;;;;5.25;100.00;102624.28;5192625;28;20840;-74
2021/12/20 00:56:32;;;;;;;12.00;5.80;;;;;;;5.24;100.00;102619.94;5193984;28;20037;-73
2021/12/20 00:59:03;;;;;;;13.77;3.80;;;;;;;5.23;100.00;102619.06;5194088;28;20469;-73
2021/12/20 01:01:35;;;;;;;18.83;5.03;;;;;;;5.24;100.00;102623.38;5193908;28;20072;-73
2021/12/20 01:04:07;;;;;;;18.90;4.90;;;;;;;5.22;100.00;102622.47;5194238;28;20030;-73
2021/12/20 01:06:38;;;;;;;17.73;5.07;;;;;;;5.23;100.00;102613.00;5194116;28;20030;-73
2021/12/20 01:09:10;;;;;;;14.00;4.17;;;;;;;5.22;100.00;102619.88;5193931;28;20049;-73
2021/12/20 01:11:43;;;;;;;17.17;4.33;;;;;;;5.22;100.00;102630.22;5194143;28;20113;-73
2021/12/20 01:14:22;;;;;;;16.27;4.25;;;;;;;5.19;100.00;102627.50;5193538;28;20057;-72
2021/12/20 01:16:56;;;;;;;16.05;5.60;;;;;;;5.15;100.00;102624.72;5192612;28;20062;-73
2021/12/20 01:19:27;;;;;;;9.77;3.70;;;;;;;5.15;100.00;102629.91;5193709;28;20497;-73
2021/12/20 01:21:59;;;;;;;14.47;3.43;;;;;;;5.14;100.00;102633.34;5193532;28;20110;-74
2021/12/20 01:24:32;;;;;;;9.80;3.40;;;;;;;5.19;100.00;102635.25;5193472;28;20466;-72
2021/12/20 01:27:03;;;;;;;19.75;5.68;;;;;;;5.14;99.80;102638.50;5193068;28;20034;-72
2021/12/20 01:29:35;;;;;;;14.70;3.47;;;;;;;5.19;99.71;102627.50;5193577;28;20527;-73
2021/12/20 01:32:06;;;;;;;19.93;4.60;;;;;;;5.14;98.24;102628.16;5193366;28;20049;-72
2021/12/20 01:34:38;;;;;;;17.03;3.17;;;;;;;5.13;97.87;102627.25;5193618;28;20470;-72
2021/12/20 01:37:09;;;;;;;25.47;5.00;;;;;;;5.09;96.20;102625.41;5193337;28;20026;-73
2021/12/20 01:39:41;;;;;;;22.43;4.70;;;;;;;5.13;96.83;102629.84;5193992;28;20022;-72
2021/12/20 01:42:17;;;;;;;23.10;4.47;;;;;;;5.08;96.64;102615.88;5193182;28;20105;-72
2021/12/20 01:44:55;;;;;;;16.73;3.67;;;;;;;5.07;95.87;102622.75;5193061;28;20022;-72
2021/12/20 01:47:31;;;;;;;17.65;4.63;;;;;;;5.08;95.51;102618.44;5193132;28;20077;-72
2021/12/20 01:50:16;;;;;;;16.38;3.50;;;;;;;5.06;95.58;102615.81;5193291;28;20061;-72
2021/12/20 01:52:48;;;;;;;17.00;4.57;;;;;;;5.07;95.85;102615.00;5193269;28;20061;-72
2021/12/20 01:55:21;;;;;;;14.27;3.50;;;;;;;5.10;96.54;102611.63;5193473;28;20030;-73
2021/12/20 01:57:53;;;;;;;19.05;4.22;;;;;;;5.04;97.02;102621.72;5193021;28;20637;-73
2021/12/20 02:00:28;;;;;;;14.13;4.77;;;;;;;5.07;96.93;102622.75;5193166;28;20042;-74
2021/12/20 02:03:02;;;;;;;18.25;4.35;;;;;;;5.09;97.16;102620.22;5197849;28;20026;-73
2021/12/20 02:08:20;;;;;;;21.58;4.63;;;;;;;5.05;96.06;102611.44;5197313;28;20398;-73
2021/12/20 02:10:55;;;;;;;18.60;5.00;;;;;;;4.99;94.44;102613.81;5196929;28;20034;-72
2021/12/20 02:13:29;;;;;;;25.30;4.95;;;;;;;5.00;93.61;102614.69;5196904;28;20033;-73
2021/12/20 02:16:00;;;;;;;18.50;5.03;;;;;;;5.00;94.88;102606.94;5197197;28;20053;-73
2021/12/20 02:18:33;;;;;;;17.37;4.00;;;;;;;4.98;95.84;102616.34;5197199;28;20386;-72
2021/12/20 02:21:05;;;;;;;28.52;5.03;;;;;;;4.97;95.89;102615.44;5212157;28;20031;-73
2021/12/20 02:23:36;;;;;;;23.53;4.50;;;;;;;4.97;96.28;102614.56;5196865;28;20042;-73
2021/12/20 02:26:11;;;;;;;24.23;4.07;;;;;;;4.97;96.77;102609.38;5196831;28;20478;-73
2021/12/20 02:28:46;;;;;;;20.35;4.60;;;;;;;4.91;95.36;102613.50;5195896;28;20035;-73
2021/12/20 02:39:31;;;;;;;21.03;4.13;;;;;;;4.99;94.71;102598.31;5153652;28;20046;-73
2021/12/20 02:42:03;;;;;;;15.90;4.40;;;;;;;4.98;95.93;102601.69;5153740;29;20434;-72
2021/12/20 02:44:34;;;;;;;19.00;4.17;;;;;;;4.92;96.06;102610.06;5169681;28;20047;-72
2021/12/20 02:47:08;;;;;;;15.77;3.83;;;;;;;4.93;96.75;102609.25;5153325;29;20083;-74
2021/12/20 02:49:41;;;;;;;21.25;4.95;;;;;;;4.93;95.58;102609.25;5153391;28;20550;-73
2021/12/20 02:52:13;;;;;;;18.88;5.10;;;;;;;4.90;96.08;102603.97;5153612;29;20043;-73
2021/12/20 02:54:44;;;;;;;16.83;4.50;;;;;;;4.90;96.07;102605.69;5153458;29;20031;-73
2021/12/20 02:57:16;;;;;;;15.93;4.93;;;;;;;4.85;94.80;102596.88;5153402;29;20126;-74
2021/12/20 02:59:47;;;;;;;23.37;4.93;;;;;;;4.88;93.31;102602.16;5153117;29;20042;-73
2021/12/20 03:02:21;;;;;;;26.37;6.10;;;;;;;4.87;91.97;102600.41;5153415;28;20023;-73
2021/12/20 03:04:52;;;;;;;18.65;3.60;;;;;;;4.86;93.01;102603.78;5153087;28;20031;-72
2021/12/20 03:07:26;;;;;;;15.10;3.97;;;;;;;4.88;93.11;102603.03;5153469;29;20045;-72
2021/12/20 03:10:02;;;;;;;17.45;4.45;;;;;;;4.88;91.63;102607.34;5153037;29;20043;-73
2021/12/20 03:12:34;;;;;;;22.13;4.65;;;;;;;4.89;91.47;102602.22;5173718;28;20104;-74
2021/12/20 03:15:13;;;;;;;30.10;5.67;;;;;;;4.90;92.70;102611.72;5195882;28;20034;-73
2021/12/20 03:17:44;;;;;;;19.48;4.32;;;;;;;4.89;92.30;102609.06;5196080;28;20125;-73
2021/12/20 03:20:16;;;;;;;18.07;4.93;;;;;;;4.90;92.98;102600.53;5195734;28;20109;-74
2021/12/20 03:22:48;;;;;;;21.03;4.33;;;;;;;4.90;93.28;102597.94;5195847;28;20038;-72
2021/12/20 03:25:21;;;;;;;17.75;4.68;;;;;;;4.93;93.66;102592.88;5195706;28;20037;-73
2021/12/20 03:27:52;;;;;;;;;;;;;;;5.00;94.67;102589.72;5196029;28;20441;-73
2021/12/20 03:30:25;;;;;;;15.80;4.05;;;;;;;4.96;94.00;102599.84;5195151;28;20016;-72
2021/12/20 03:32:56;;;;;;;20.98;4.85;;;;;;;4.95;93.44;102611.91;5196177;28;20085;-73
2021/12/20 03:35:28;;;;;;;20.97;4.90;;;;;;;4.95;94.11;102603.28;5195865;28;20030;-73
2021/12/20 03:37:59;;;;;;;21.00;4.53;;;;;;;4.91;94.17;102607.44;5195640;28;20026;-73
2021/12/20 03:40:32;;;;;;;17.20;4.60;;;;;;;4.88;93.82;102603.03;5195332;28;20065;-73
2021/12/20 03:43:05;;;;;;;28.50;5.45;;;;;;;4.86;94.20;102598.63;5195235;28;20039;-73
2021/12/20 03:45:37;;;;;;;22.70;4.57;;;;;;;4.89;94.40;102614.25;5194996;28;20045;-73
2021/12/20 03:48:09;;;;;;;20.38;3.72;;;;;;;4.82;93.95;102610.53;5195246;28;20041;-72
2021/12/20 03:50:40;;;;;;;18.27;4.57;;;;;;;4.87;95.16;102608.16;5193878;28;20450;-72
2021/12/20 03:53:11;;;;;;;17.17;4.13;;;;;;;4.81;95.01;102611.34;5195312;28;20034;-73
2021/12/20 03:55:43;;;;;;;26.30;4.87;;;;;;;4.76;94.33;102602.53;5194988;28;20038;-72
2021/12/20 03:58:14;;;;;;;28.83;5.97;;;;;;;4.71;92.88;102591.13;5195258;28;20486;-72
2021/12/20 04:00:46;;;;;;;29.73;5.63;;;;;;;4.74;93.14;102601.59;5194752;28;20085;-73
2021/12/20 04:03:18;;;;;;;21.47;4.53;;;;;;;4.73;93.93;102603.31;5194967;28;20202;-73
2021/12/20 04:05:49;;;;;;;21.57;5.43;;;;;;;4.73;93.53;102607.56;5194861;28;20509;-73
2021/12/20 04:08:20;;;;;;;20.53;5.17;;;;;;;4.73;94.11;102602.41;5195165;28;20030;-73
2021/12/20 04:10:52;;;;;;;29.20;5.93;;;;;;;4.70;93.65;102607.44;5195122;28;20455;-73
2021/12/20 04:13:25;;;;;;;22.30;5.83;;;;;;;4.66;93.33;102597.81;5194975;28;20124;-73
2021/12/20 04:15:57;;;;;;;22.55;4.82;;;;;;;4.65;92.18;102593.47;5194530;28;20037;-73
2021/12/20 04:18:30;;;;;;;23.50;5.50;;;;;;;4.68;92.33;102602.22;5194866;28;20027;-72
2021/12/20 04:21:02;;;;;;;22.10;5.03;;;;;;;4.67;92.84;102600.47;5194665;28;20169;-72
2021/12/20 04:23:34;;;;;;;25.40;5.88;;;;;;;4.65;91.88;102599.50;5194530;28;20057;-72
2021/12/20 04:26:06;;;;;;;35.93;6.97;;;;;;;4.66;91.33;102597.81;5194599;28;20061;-73
2021/12/20 04:28:37;;;;;;;26.43;5.13;;;;;;;4.67;91.42;102605.63;5194556;28;20062;-73
2021/12/20 04:31:08;;;;;;;22.73;5.53;;;;;;;4.68;92.37;102604.81;5194386;28;20133;-73
2021/12/20 04:33:40;;;;;;;22.70;4.97;;;;;;;4.72;92.27;102604.13;5194310;28;20038;-73
2021/12/20 04:36:11;;;;;;;26.57;6.27;;;;;;;4.68;92.09;102602.22;5193388;28;20382;-73
2021/12/20 04:38:43;;;;;;;29.90;6.87;;;;;;;4.69;92.64;102593.66;5194608;28;20436;-73
2021/12/20 04:41:15;;;;;;;32.37;6.70;;;;;;;4.67;90.72;102591.81;5194147;28;20030;-73
2021/12/20 04:43:46;;;;;;;26.63;6.33;;;;;;;4.72;91.73;102592.91;5194119;28;20514;-72
2021/12/20 04:46:18;;;;;;;13.57;4.17;;;;;;;4.71;90.43;102597.19;5194027;28;20089;-72
2021/12/20 04:48:49;;;;;;;19.80;5.30;;;;;;;4.74;91.43;102602.47;5194158;28;20034;-72
2021/12/20 04:51:20;;;;;;;23.17;5.33;;;;;;;4.69;90.90;102598.81;5194278;28;20072;-73
2021/12/20 04:53:51;;;;;;;22.10;4.23;;;;;;;4.71;90.67;102601.47;5194463;28;20030;-73
2021/12/20 04:56:23;;;;;;;16.50;5.67;;;;;;;4.69;87.81;102595.38;5194196;28;20042;-73
2021/12/20 04:58:55;;;;;;;29.67;6.67;;;;;;;4.66;89.02;102598.69;5193941;28;20034;-73
2021/12/20 05:01:26;;;;;;;18.63;5.23;;;;;;;4.71;90.33;102601.47;5193873;28;20038;-72
2021/12/20 05:03:57;;;;;;;21.87;5.77;;;;;;;4.69;89.98;102598.81;5176512;28;20049;-73
2021/12/20 05:06:31;;;;;;;17.27;4.20;;;;;;;4.70;89.93;102599.69;5194033;28;20085;-73
2021/12/20 05:09:05;;;;;;;27.70;6.45;;;;;;;4.66;90.71;102598.69;5193681;28;20042;-73
2021/12/20 05:11:36;;;;;;;28.13;5.20;;;;;;;4.70;89.90;102598.03;5193762;28;20367;-73
2021/12/20 05:14:07;;;;;;;23.80;5.13;;;;;;;4.69;90.14;102601.41;5193865;28;20069;-74
2021/12/20 05:16:39;;;;;;;20.30;5.17;;;;;;;4.64;88.60;102600.34;5192067;28;20046;-73
2021/12/20 05:19:10;;;;;;;22.30;4.67;;;;;;;4.66;88.25;102601.28;5193857;28;20373;-73
2021/12/20 05:21:41;;;;;;;21.87;4.57;;;;;;;4.65;87.35;102599.50;5193710;28;20108;-73
2021/12/20 05:24:13;;;;;;;31.03;6.10;;;;;;;4.64;88.27;102602.94;5193710;28;20038;-74
2021/12/20 05:26:44;;;;;;;26.23;5.67;;;;;;;4.66;90.01;102606.44;5193700;28;20037;-74
2021/12/20 05:29:15;;;;;;;26.20;5.70;;;;;;;4.67;89.59;102605.63;5193587;28;20027;-74
2021/12/20 05:31:47;;;;;;;22.53;5.53;;;;;;;4.68;90.06;102603.94;5193244;28;20062;-74
2021/12/20 05:34:19;;;;;;;23.23;4.93;;;;;;;4.68;88.93;102599.63;5194405;28;20625;-75
2021/12/20 05:36:50;;;;;;;26.97;6.03;;;;;;;4.67;88.51;102610.81;5193530;28;20028;-75
2021/12/20 05:39:22;;;;;;;26.63;5.60;;;;;;;4.63;89.12;102616.66;5192822;28;20034;-77
2021/12/20 05:41:53;;;;;;;20.87;5.80;;;;;;;4.63;88.82;102616.66;5193678;28;20049;-74
2021/12/20 05:44:25;;;;;;;30.10;6.23;;;;;;;4.59;88.32;102607.03;5193626;28;20037;-75
2021/12/20 05:46:56;;;;;;;24.77;5.60;;;;;;;4.63;87.00;102606.31;5193065;28;20410;-76
2021/12/20 05:49:27;;;;;;;26.37;6.73;;;;;;;4.60;86.40;102600.16;5193428;28;20046;-74
2021/12/20 05:52:02;;;;;;;27.00;5.90;;;;;;;4.60;86.45;102602.75;5193262;28;20034;-73
2021/12/20 05:54:34;;;;;;;21.63;6.93;;;;;;;4.59;86.39;102609.63;5193220;28;20035;-75
2021/12/20 05:57:07;;;;;;;23.60;6.40;;;;;;;4.60;85.45;102606.19;5193117;28;20080;-75
2021/12/20 05:59:38;;;;;;;19.30;4.78;;;;;;;4.63;85.58;102611.50;5193044;28;20470;-75
2021/12/20 06:02:09;;;;;;;17.63;5.10;;;;;;;4.65;86.55;102609.84;5193355;28;20062;-74
2021/12/20 06:04:41;;;;;;;23.00;5.53;;;;;;;4.62;84.81;102609.75;5193359;28;20061;-74
2021/12/20 06:07:12;;;;;;;23.27;5.33;;;;;;;4.66;86.35;102611.63;5193414;28;20031;-74
2021/12/20 06:09:44;;;;;;;31.47;5.50;;;;;;;4.66;87.94;102610.75;5193121;28;20049;-73
2021/12/20 06:12:16;;;;;;;23.30;5.22;;;;;;;4.65;87.76;102609.84;5192973;28;20085;-75
2021/12/20 06:14:47;;;;;;;23.37;5.87;;;;;;;4.64;89.41;102613.25;5193426;28;20023;-75
2021/12/20 06:17:19;;;;;;;32.17;6.67;;;;;;;4.65;89.38;102614.13;5193203;28;20061;-74
2021/12/20 06:19:51;;;;;;;23.33;5.18;;;;;;;4.64;89.04;102626.19;5192787;28;20022;-76
2021/12/20 06:22:22;;;;;;;28.17;6.13;;;;;;;4.62;89.44;102625.25;5193180;28;20426;-75
2021/12/20 06:24:53;;;;;;;18.37;4.83;;;;;;;4.60;88.25;102619.09;5192941;28;20073;-77
2021/12/20 06:27:25;;;;;;;20.47;4.50;;;;;;;4.63;88.93;102624.41;5193120;28;20031;-75
2021/12/20 06:29:56;;;;;;;22.50;4.50;;;;;;;4.57;88.11;102613.81;5192948;28;20046;-74
2021/12/20 06:32:27;;;;;;;34.13;6.47;;;;;;;4.58;86.75;102625.91;5192661;28;20023;-75
2021/12/20 06:34:59;;;;;;;29.93;7.10;;;;;;;4.58;86.60;102628.50;5192688;28;20030;-75
2021/12/20 06:37:32;;;;;;;29.77;6.80;;;;;;;4.54;86.14;102632.66;5192669;28;20101;-75
2021/12/20 06:40:04;;;;;;;21.20;4.53;;;;;;;4.53;86.42;102624.84;5192752;28;20044;-75
2021/12/20 06:42:38;;;;;;;26.73;5.57;;;;;;;4.55;87.66;102624.06;5192487;28;20045;-74
2021/12/20 06:45:09;;;;;;;17.52;4.43;;;;;;;4.56;85.89;102630.16;5192439;28;20057;-76
2021/12/20 06:47:40;;;;;;;21.67;5.43;;;;;;;4.53;85.29;102630.88;5194620;28;20046;-75
2021/12/20 06:50:12;;;;;;;21.83;5.43;;;;;;;4.55;86.78;102636.13;5196430;28;20042;-76
2021/12/20 06:52:43;;;;;;;21.50;5.07;;;;;;;4.55;88.06;102636.13;5211314;28;20027;-75
2021/12/20 06:55:15;;;;;;;23.93;5.93;;;;;;;4.51;87.69;102642.88;5196527;28;20563;-76
2021/12/20 06:57:46;;;;;;;19.10;5.97;;;;;;;4.52;88.08;102643.75;5196581;28;20106;-76
2021/12/20 07:00:18;;;;;;;27.27;5.73;;;;;;;4.47;86.36;102637.50;5196660;28;20041;-77
2021/12/20 07:02:49;;;;;;;15.70;5.10;;;;;;;4.49;86.67;102643.59;5196117;28;20560;-76
2021/12/20 07:05:22;;;;;;;21.33;4.03;;;;;;;4.49;88.15;102646.19;5195983;28;20033;-76
2021/12/20 07:07:53;;;;;;;24.38;5.20;;;;;;;4.49;88.29;102644.50;5196282;28;20026;-75
2021/12/20 07:10:24;;;;;;;13.33;4.13;;;;;;;4.45;87.35;102645.19;5196064;28;20034;-75
2021/12/20 07:12:56;;;;;;;22.87;4.20;;;;;;;4.47;87.65;102647.84;5178677;28;20038;-76
2021/12/20 07:15:31;;;;;;;20.27;5.03;;;;;;;4.43;87.58;102654.56;5195988;28;20108;-75
2021/12/20 07:18:03;;;;;;;26.27;5.72;;;;;;;4.43;87.37;102652.00;5196285;28;20032;-74
2021/12/20 07:20:34;;;;;;;22.33;4.38;;;;;;;4.42;87.18;102652.81;5196000;28;20234;-75
2021/12/20 07:23:06;;;;;;;18.83;4.47;;;;;;;4.41;87.63;102648.44;5196222;28;20026;-75
2021/12/20 07:25:37;;;;;;;19.20;4.97;;;;;;;4.42;89.00;102650.22;5196443;28;20042;-76
2021/12/20 07:28:09;;;;;;;21.97;5.00;;;;;;;4.41;88.56;102648.44;5195793;28;20080;-76
2021/12/20 07:30:40;;;;;;;26.30;4.83;;;;;;;4.41;88.40;102658.78;5195909;28;20030;-73
2021/12/20 07:33:15;;;;;;;18.47;4.90;;;;;;;4.42;89.27;102655.38;5196020;28;20045;-74
2021/12/20 07:35:46;;;;;;;20.38;5.03;;;;;;;4.42;88.54;102655.38;5195686;28;20064;-74
2021/12/20 07:38:18;;;;;;;19.20;4.67;;;;;;;4.45;89.82;102652.94;5195504;28;20659;-75
2021/12/20 07:40:50;;;;;;;21.67;5.63;;;;;;;4.42;89.62;102655.38;5195823;28;20026;-74
2021/12/20 07:43:22;;;;;;;23.42;5.25;;;;;;;4.46;89.67;102653.81;5195415;28;20036;-73
2021/12/20 07:45:53;;;;;;;19.90;4.67;;;;;;;4.47;90.58;102653.88;5195126;28;20069;-75
2021/12/20 07:48:25;;;;;;;29.60;8.13;;;;;;;4.44;90.02;102652.88;5195258;28;20073;-75
2021/12/20 07:50:57;;;;;;;22.50;6.13;;;;;;;4.44;89.98;102660.63;5195089;28;20073;-75
2021/12/20 07:53:29;;;;;;;26.98;6.63;;;;;;;4.45;90.33;102657.22;5195576;28;20085;-75
2021/12/20 07:56:02;;;;;;;24.97;5.73;;;;;;;4.44;90.78;102658.91;5195018;28;20034;-75
2021/12/20 07:58:34;;;;;;;24.42;5.95;;;;;;;4.48;90.62;102665.09;5194283;28;20050;-75
2021/12/20 08:01:06;;;;;;;19.07;5.50;;;;;;;4.51;91.07;102665.25;5195080;28;20122;-74
2021/12/20 08:03:39;;;;;;;20.15;5.82;;;;;;;4.47;90.51;102663.31;5193204;28;20033;-75
2021/12/20 08:06:10;;;;;;;26.20;5.68;;;;;;;4.51;90.01;102666.09;5195167;28;20030;-75
2021/12/20 08:08:42;;;;;;;26.23;5.70;;;;;;;4.53;90.72;102661.00;5194993;28;20022;-74
2021/12/20 08:11:13;;;;;;;22.83;5.70;;;;;;;4.55;90.26;102667.13;5194882;28;20145;-76
2021/12/20 08:13:45;;;;;;;23.57;5.73;;;;;;;4.57;91.04;102666.38;5177788;28;20042;-75
2021/12/20 08:16:19;;;;;;;22.47;5.83;;;;;;;4.56;90.91;102677.50;5209790;28;20038;-75
2021/12/20 08:18:50;;;;;;;20.38;5.35;;;;;;;4.56;89.03;102667.19;5195047;28;20398;-74
2021/12/20 08:21:22;;;;;;;26.00;7.17;;;;;;;4.56;87.81;102666.31;5194602;28;20023;-76
2021/12/20 08:23:54;;;;;;;35.80;6.00;;;;;;;4.59;88.33;102673.28;5194976;28;20030;-76
2021/12/20 08:26:26;;;;;;;;;;;;;;;4.67;89.31;102677.06;5194991;28;20057;-75
2021/12/20 08:28:57;;;;;;;21.70;5.28;;;;;;;4.64;89.06;102683.00;5194626;28;19918;-75
2021/12/20 08:31:29;;;;;;;20.13;5.27;;;;;;;4.57;88.06;102671.53;5193406;28;20065;-75
2021/12/20 08:34:00;;;;;;;24.53;6.17;;;;;;;4.57;86.92;102665.47;5194575;28;20030;-74
2021/12/20 08:36:32;;;;;;;29.70;5.93;;;;;;;4.68;89.28;102674.56;5194604;28;20061;-74
2021/12/20 08:39:03;;;;;;;18.93;5.20;;;;;;;4.71;89.87;102674.69;5194478;28;20078;-73
2021/12/20 08:41:35;;;;;;;29.63;6.17;;;;;;;4.74;89.24;102666.19;5194343;28;20026;-74
2021/12/20 08:44:06;;;;;;;23.63;6.53;;;;;;;4.74;88.46;102679.09;5194776;28;20034;-75
2021/12/20 08:46:37;;;;;;;23.13;6.10;;;;;;;4.84;88.68;102678.66;5194204;28;20050;-74
2021/12/20 08:49:09;;;;;;;19.10;4.67;;;;;;;4.88;89.29;102677.09;5194582;28;20536;-75
2021/12/20 08:51:41;;;;;;;24.77;5.50;;;;;;;4.94;90.64;102682.50;5193771;28;20045;-73
2021/12/20 08:54:14;;;;;;;25.88;6.30;;;;;;;4.97;89.95;102672.28;5194095;28;20026;-75
2021/12/20 08:56:45;;;;;;;20.33;6.07;;;;;;;4.97;86.89;102680.03;5194148;28;20120;-76
2021/12/20 08:59:17;;;;;;;16.77;4.77;;;;;;;5.04;85.21;102678.59;5194323;28;20168;-75
2021/12/20 09:01:49;;;;;;;21.10;4.85;;;;;;;5.07;84.33;102678.72;5193941;28;20149;-74
2021/12/20 09:04:20;;;;;;;17.27;5.73;;;;;;;5.09;84.49;102675.38;5194149;28;20064;-76
2021/12/20 09:06:53;;;;;;;12.93;4.00;;;;;;;5.13;83.39;102675.50;5193916;28;20165;-76
2021/12/20 09:09:24;;;;;;;20.27;4.70;;;;;;;5.20;83.90;102677.50;5193709;28;20062;-75
2021/12/20 09:11:55;;;;;;;20.70;4.70;;;;;;;5.23;82.37;102680.22;5192825;28;20054;-75
2021/12/20 09:14:28;;;;;;;19.07;4.10;;;;;;;5.24;83.59;102685.44;5194028;28;20062;-74
2021/12/20 09:17:00;;;;;;;21.98;4.72;;;;;;;5.25;83.55;102683.75;5193565;28;20026;-74
2021/12/20 09:19:36;;;;;;;21.40;4.53;;;;;;;5.33;84.64;102686.63;5193611;28;20104;-75
2021/12/20 09:22:10;;;;;;;15.68;4.53;;;;;;;5.36;84.85;102698.00;5193722;28;20404;-74
2021/12/20 09:24:41;;;;;;;20.92;4.93;;;;;;;5.33;81.34;102694.38;5193534;28;20428;-74
2021/12/20 09:27:13;;;;;;;17.97;4.17;;;;;;;5.33;79.00;102686.63;5193547;28;20149;-74
2021/12/20 09:29:45;;;;;;;13.75;4.18;;;;;;;5.35;79.50;102695.34;5193319;28;20037;-75
2021/12/20 09:32:19;;;;;;;14.47;4.00;;;;;;;5.38;81.04;102696.34;5193370;28;20034;-74
2021/12/20 09:34:52;;;;;;;23.70;4.53;;;;;;;5.47;82.13;102700.97;5192158;28;20030;-75
2021/12/20 09:37:23;;;;;;;15.55;4.35;;;;;;;5.47;81.22;102694.13;5193295;28;20489;-76
2021/12/20 09:39:55;;;;;;;17.67;4.97;;;;;;;5.53;82.18;102703.81;5193679;28;20022;-75
2021/12/20 09:42:27;;;;;;;21.77;4.33;;;;;;;5.57;81.81;102699.63;5193222;28;20712;-74
2021/12/20 09:45:00;;;;;;;18.60;4.43;;;;;;;5.54;78.42;102704.69;5193520;28;20026;-75
2021/12/20 09:47:33;;;;;;;12.73;4.03;;;;;;;5.53;78.18;102702.94;5193310;28;20058;-76
2021/12/20 09:50:05;;;;;;;22.63;5.57;;;;;;;5.56;77.96;102706.53;5193533;28;20041;-75
2021/12/20 09:52:37;;;;;;;21.65;5.07;;;;;;;5.63;80.04;102712.81;5193215;28;20085;-74
2021/12/20 09:55:10;;;;;;;15.23;3.80;;;;;;;5.64;78.71;102712.88;5193620;28;20022;-74
2021/12/20 09:57:44;;;;;;;20.02;5.18;;;;;;;5.63;77.59;102707.63;5193301;28;20120;-74
2021/12/20 10:00:19;;;;;;;27.70;9.65;;;;;;;5.66;78.72;102708.63;5193262;28;20049;-74
2021/12/20 10:02:51;;;;;;;24.08;5.78;;;;;;;5.73;79.93;102708.88;5193348;28;20030;-75
2021/12/20 10:05:23;;;;;;;23.43;5.87;;;;;;;5.77;79.05;102715.94;5193134;28;20072;-76
2021/12/20 10:07:56;;;;;;;23.83;6.17;;;;;;;5.76;78.49;102701.22;5192777;28;20121;-75
2021/12/20 10:10:41;;;;;;;18.27;4.60;;;;;;;5.79;78.18;102707.38;5192886;28;20457;-76
2021/12/20 10:13:27;;;;;;;18.92;5.22;;;;;;;5.85;78.76;102705.03;5193002;28;20544;-74
2021/12/20 10:16:01;;;;;;;22.10;4.90;;;;;;;5.94;79.82;102713.97;5192252;28;20038;-75
2021/12/20 10:18:35;;;;;;;20.45;5.20;;;;;;;5.95;77.87;102710.56;5192982;28;20057;-74
2021/12/20 10:21:06;;;;;;;20.05;5.57;;;;;;;6.11;77.90;102718.09;5192808;28;20125;-77
2021/12/20 10:23:41;;;;;;;20.33;5.40;;;;;;;6.12;78.13;102719.88;5210817;28;20049;-74
2021/12/20 10:26:16;;;;;;;17.95;5.45;;;;;;;6.09;77.89;102714.59;5197219;28;20392;-74
2021/12/20 10:28:52;;;;;;;21.70;5.25;;;;;;;6.14;77.02;102707.84;5196963;28;20409;-75
2021/12/20 10:31:27;;;;;;;17.58;4.53;;;;;;;6.19;78.42;102713.22;5196742;28;20478;-73
2021/12/20 10:34:03;;;;;;;20.45;4.60;;;;;;;6.14;77.75;102707.84;5196710;28;20077;-75
2021/12/20 10:36:34;;;;;;;16.98;4.32;;;;;;;6.07;75.10;102705.88;5196717;28;20034;-74
2021/12/20 10:39:06;;;;;;;24.17;6.00;;;;;;;6.09;77.93;102706.81;5196667;28;20081;-73
2021/12/20 10:41:40;;;;;;;22.13;6.68;;;;;;;6.15;78.25;102709.63;5196724;28;20049;-73
2021/12/20 10:44:16;;;;;;;20.90;4.25;;;;;;;6.11;77.98;102712.06;5196735;28;20259;-74
2021/12/20 10:46:53;;;;;;;22.83;4.75;;;;;;;6.15;78.15;102708.72;5196462;28;20046;-76
2021/12/20 10:49:27;;;;;;;16.75;4.13;;;;;;;6.16;76.90;102711.38;5196548;28;20057;-75
2021/12/20 10:51:59;;;;;;;18.10;5.78;;;;;;;6.17;76.94;102714.88;5196208;28;20030;-74
2021/12/20 10:54:32;;;;;;;24.17;7.53;;;;;;;6.12;77.42;102704.34;5196630;28;20117;-74
2021/12/20 10:57:05;;;;;;;21.52;5.68;;;;;;;6.20;77.74;102707.22;5196340;28;20874;-74
2021/12/20 10:59:37;;;;;;;18.73;5.82;;;;;;;6.13;77.20;102706.09;5196712;28;20105;-74
2021/12/20 11:04:59;;;;;;;26.90;5.95;;;;;;;6.30;78.14;102709.31;5198512;28;20031;-74
2021/12/20 11:10:08;;;;;;;22.10;4.83;;;;;;;6.33;76.74;102700.78;5196872;28;20096;-75
2021/12/20 11:12:40;;;;;;;18.00;4.15;;;;;;;6.24;76.64;102705.59;5197804;28;20076;-74
2021/12/20 11:15:13;;;;;;;22.57;6.00;;;;;;;6.24;77.14;102703.03;5198918;28;20497;-73
2021/12/20 11:17:45;;;;;;;19.30;4.68;;;;;;;6.26;77.77;102715.19;5200084;28;20042;-74
2021/12/20 11:20:21;;;;;;;;;;;;;;;6.51;79.10;102709.16;5199297;28;20037;-75
2021/12/20 11:23:02;;;;;;;21.95;5.18;;;;;;;6.45;78.14;102698.59;5197602;28;19918;-74
2021/12/20 11:25:34;;;;;;;20.90;5.97;;;;;;;6.43;78.31;102700.25;5197122;28;20504;-74
2021/12/20 11:28:06;;;;;;;18.27;5.20;;;;;;;6.52;77.44;102695.41;5179254;28;20030;-73
2021/12/20 11:30:38;;;;;;;;;;;;;;;6.78;77.98;102700.59;5197119;28;20065;-74
2021/12/20 11:33:10;;;;;;;16.95;5.00;;;;;;;6.73;78.41;102700.44;5196414;28;19952;-74
2021/12/20 11:35:42;;;;;;;17.80;4.57;;;;;;;6.76;75.75;102702.22;5195947;28;20490;-76
2021/12/20 11:38:13;;;;;;;24.27;6.87;;;;;;;6.87;76.64;102700.88;5197224;28;20026;-74
2021/12/20 11:40:44;;;;;;;18.37;5.17;;;;;;;6.93;76.53;102701.09;5196650;28;20038;-75
2021/12/20 11:43:16;;;;;;;31.20;5.37;;;;;;;6.99;75.42;102690.03;5197763;28;20037;-74
2021/12/20 11:45:48;;;;;;;18.20;4.77;;;;;;;7.03;75.16;102694.47;5198479;28;20143;-74
2021/12/20 11:48:22;;;;;;;22.80;6.53;;;;;;;7.10;75.24;102699.06;5198460;28;20034;-74
2021/12/20 11:50:58;;;;;;;19.90;4.65;;;;;;;7.19;75.63;102695.88;5201124;28;20141;-75
2021/12/20 11:53:37;;;;;;;17.98;4.43;;;;;;;7.20;74.83;102696.75;5200463;28;20385;-74
2021/12/20 11:56:09;;;;;;;19.85;4.63;;;;;;;7.27;74.71;102699.56;5200821;28;20387;-74
2021/12/20 11:58:47;;;;;;;23.07;5.57;;;;;;;7.37;73.96;102689.50;5199126;28;20026;-75
2021/12/20 12:01:19;;;;;;;20.13;4.70;;;;;;;7.30;73.63;102688.44;5202066;28;20038;-73
2021/12/20 12:03:57;;;;;;;20.52;4.40;;;;;;;7.27;73.16;102689.19;5197979;28;20054;-74
2021/12/20 12:06:30;;;;;;;16.77;5.80;;;;;;;7.37;73.56;102684.31;5195819;28;20109;-76